MROC/SJO METAR and TAF weather

Enter ICAO airport designator
Station Type Date Time Source
MROC METAR 2020/03/31 09:00 UTC NOAA

MROC 310900Z 07010KT 9999 FEW035 21/16 A2995 NOSIG


Station Type Date Time Source
MROC Decoded METAR 2020/03/31 09:00 UTC NOAA

Juan Santamaria, Costa Rica (MROC) 10-00N 084-13W 939M
Mar 31, 2020 - 05:00 AM EDT / 2020.03.31 0900 UTC
Wind: from the ENE (070 degrees) at 12 MPH (10 KT):0
Visibility: greater than 7 mile(s):0
Sky conditions: mostly clear
Temperature: 69 F (21 C)
Dew Point: 60 F (16 C)
Relative Humidity: 73%
Pressure (altimeter): 29.95 in. Hg (1014 hPa)
ob: MROC 310900Z 07010KT 9999 FEW035 21/16 A2995 NOSIG
cycle: 9

Station Type Date Time Source
MROC TAF 2020/03/31 06:03 UTC NOAA

TAF MROC 310500Z 3106/0106 10013KT 9999 FEW040 TX30/3120Z TN20/3111Z
TEMPO 3118/3123 22007KT

Example: see airport list